Time;durP1;ratioP1;P1;durP2;ratioP2;P2;SDS_P1;SDS_P2;PMS_P1;PMS_P2;Temp;Humidity;BMP_temperature;BMP_pressure;BME280_temperature;BME280_humidity;BME280_pressure;Samples;Min_cycle;Max_cycle;Signal;HPM_P1;HPM_P2
2023/04/08 00:01:05;;;;;;;1.97;1.87;;;22.20;48.70;;;;;;5030488;28;20450;-76
2023/04/08 00:03:34;;;;;;;1.93;1.83;;;22.20;48.70;;;;;;5030894;28;20814;-80
2023/04/08 00:06:04;;;;;;;1.47;1.43;;;22.20;48.70;;;;;;5030794;28;20543;-76
2023/04/08 00:08:32;;;;;;;1.53;1.43;;;22.30;48.80;;;;;;5031050;28;20451;-76
2023/04/08 00:11:00;;;;;;;1.90;1.80;;;22.20;48.80;;;;;;5031531;28;20442;-76
2023/04/08 00:13:28;;;;;;;1.60;1.50;;;22.30;48.80;;;;;;5027467;28;21173;-76
2023/04/08 00:15:56;;;;;;;1.50;1.33;;;22.20;48.80;;;;;;5030378;28;20469;-77
2023/04/08 00:18:26;;;;;;;2.00;1.80;;;22.30;48.80;;;;;;5026401;28;20473;-76
2023/04/08 00:20:55;;;;;;;1.57;1.47;;;22.30;48.80;;;;;;5030973;28;20454;-79
2023/04/08 00:23:25;;;;;;;1.50;1.40;;;22.30;48.80;;;;;;5030920;28;20439;-80
2023/04/08 00:25:53;;;;;;;1.93;1.70;;;22.30;48.80;;;;;;5030904;28;20466;-76
2023/04/08 00:28:21;;;;;;;1.47;1.40;;;22.30;48.80;;;;;;5019452;28;20928;-78
2023/04/08 00:30:50;;;;;;;1.83;1.67;;;22.30;48.80;;;;;;5011488;28;20492;-76
2023/04/08 00:33:18;;;;;;;2.53;2.07;;;22.20;48.80;;;;;;5010988;28;20438;-76
2023/04/08 00:35:46;;;;;;;1.47;1.23;;;22.20;48.80;;;;;;5011255;28;21178;-76
2023/04/08 00:38:15;;;;;;;1.60;1.50;;;22.20;48.80;;;;;;5021074;28;20466;-76
2023/04/08 00:40:44;;;;;;;1.33;1.33;;;22.20;48.80;;;;;;5031038;28;20451;-78
2023/04/08 00:43:12;;;;;;;1.30;1.30;;;22.20;48.80;;;;;;5030352;28;20452;-76
2023/04/08 00:45:41;;;;;;;1.70;1.60;;;22.20;48.80;;;;;;5006957;28;20497;-76
2023/04/08 00:48:09;;;;;;;1.60;1.50;;;22.20;48.90;;;;;;5021142;28;20947;-76
2023/04/08 00:50:37;;;;;;;1.60;1.50;;;22.20;48.90;;;;;;5011035;28;20871;-77
2023/04/08 00:53:05;;;;;;;1.57;1.47;;;22.20;48.90;;;;;;4998180;28;20482;-77
2023/04/08 00:55:33;;;;;;;2.07;1.97;;;22.20;48.90;;;;;;5030589;28;20451;-76
2023/04/08 00:58:03;;;;;;;1.30;1.20;;;22.20;48.90;;;;;;5029629;28;21013;-76
2023/04/08 01:00:32;;;;;;;1.17;1.13;;;22.20;48.90;;;;;;5029924;28;20457;-77
2023/04/08 01:03:12;;;;;;;1.27;1.17;;;22.20;48.80;;;;;;5028588;28;20440;-76
2023/04/08 01:05:47;;;;;;;1.70;1.60;;;22.20;48.90;;;;;;5010833;28;20577;-78
2023/04/08 01:08:17;;;;;;;1.73;1.63;;;22.20;48.90;;;;;;5019874;28;20469;-76
2023/04/08 01:10:49;;;;;;;1.33;1.23;;;22.20;48.80;;;;;;5030462;28;20441;-76
2023/04/08 01:13:21;;;;;;;1.57;1.47;;;22.20;48.90;;;;;;5030186;28;20430;-76
2023/04/08 01:15:50;;;;;;;1.73;1.63;;;22.20;48.90;;;;;;5010950;28;21012;-77
2023/04/08 01:18:20;;;;;;;1.60;1.50;;;22.20;48.90;;;;;;5019585;28;20523;-76
2023/04/08 01:20:50;;;;;;;1.60;1.50;;;22.20;48.90;;;;;;5011227;28;20443;-78
2023/04/08 01:23:24;;;;;;;1.73;1.63;;;22.20;48.90;;;;;;4992833;28;20541;-78
2023/04/08 01:25:54;;;;;;;1.70;1.57;;;22.20;48.90;;;;;;4994757;28;20564;-76
2023/04/08 01:28:25;;;;;;;1.47;1.37;;;22.20;49.00;;;;;;5025981;28;20888;-79
2023/04/08 01:30:56;;;;;;;1.30;1.20;;;22.20;48.90;;;;;;5033829;28;20426;-76
2023/04/08 01:33:28;;;;;;;1.93;1.43;;;22.20;48.90;;;;;;5033872;28;20439;-76
2023/04/08 01:35:57;;;;;;;1.20;1.20;;;22.20;48.90;;;;;;5034272;28;20823;-76
2023/04/08 01:38:27;;;;;;;1.53;1.43;;;22.20;48.90;;;;;;5009015;28;20984;-77
2023/04/08 01:40:57;;;;;;;1.33;1.13;;;22.20;48.90;;;;;;5033360;28;20541;-79
2023/04/08 01:43:27;;;;;;;1.97;1.40;;;22.20;48.90;;;;;;5032526;28;20805;-81
2023/04/08 01:45:57;;;;;;;1.33;1.30;;;22.20;48.90;;;;;;5033951;28;20469;-75
2023/04/08 01:48:27;;;;;;;1.30;1.20;;;22.20;48.90;;;;;;5015510;28;20538;-76
2023/04/08 01:50:56;;;;;;;1.30;1.10;;;22.20;48.90;;;;;;5034225;28;20439;-77
2023/04/08 01:53:25;;;;;;;1.40;1.30;;;22.20;49.00;;;;;;5033097;28;20526;-76
2023/04/08 01:55:58;;;;;;;1.00;1.00;;;22.20;49.00;;;;;;5015061;28;20459;-78
2023/04/08 01:58:35;;;;;;;1.37;1.27;;;22.20;49.00;;;;;;5004184;28;20468;-79
2023/04/08 02:01:06;;;;;;;1.63;1.53;;;22.20;49.00;;;;;;4996128;28;20484;-76
2023/04/08 02:03:35;;;;;;;1.40;1.30;;;22.20;49.00;;;;;;5013357;28;21245;-78
2023/04/08 02:06:03;;;;;;;1.67;1.57;;;22.20;49.00;;;;;;4996304;28;20479;-77
2023/04/08 02:08:34;;;;;;;1.23;1.20;;;22.20;49.00;;;;;;5006047;28;20549;-76
2023/04/08 02:11:04;;;;;;;1.00;1.00;;;22.20;49.00;;;;;;5015010;28;20508;-78
2023/04/08 02:13:33;;;;;;;1.57;1.47;;;22.20;49.00;;;;;;5014856;28;20442;-77
2023/04/08 02:16:07;;;;;;;1.10;1.10;;;22.20;49.00;;;;;;5033315;28;20919;-76
2023/04/08 02:18:39;;;;;;;1.63;1.30;;;22.20;49.00;;;;;;5032679;28;20462;-76
2023/04/08 02:21:11;;;;;;;1.27;1.27;;;22.20;49.00;;;;;;5015538;28;20454;-76
2023/04/08 02:23:41;;;;;;;1.63;1.53;;;22.10;49.00;;;;;;5032758;28;20542;-75
2023/04/08 02:26:14;;;;;;;1.50;1.40;;;22.20;49.00;;;;;;5032447;28;20510;-76
2023/04/08 02:28:43;;;;;;;1.50;1.40;;;22.10;49.00;;;;;;5019666;28;20522;-76
2023/04/08 02:31:13;;;;;;;1.60;1.50;;;22.10;49.10;;;;;;5012899;28;20497;-76
2023/04/08 02:33:46;;;;;;;1.33;1.33;;;22.10;49.10;;;;;;5011415;28;20464;-77
2023/04/08 02:36:15;;;;;;;1.50;1.40;;;22.10;49.10;;;;;;5012943;28;21296;-77
2023/04/08 02:38:48;;;;;;;1.50;1.40;;;22.10;49.10;;;;;;5023736;28;20451;-77
2023/04/08 02:41:18;;;;;;;1.10;1.10;;;22.10;49.10;;;;;;5014833;28;20954;-76
2023/04/08 02:43:46;;;;;;;1.07;1.00;;;22.10;49.10;;;;;;5028760;28;20449;-76
2023/04/08 02:46:15;;;;;;;1.33;1.30;;;22.10;49.10;;;;;;5020533;28;20474;-79
2023/04/08 02:48:43;;;;;;;1.23;1.23;;;22.10;49.00;;;;;;5002795;28;20473;-76
2023/04/08 02:51:11;;;;;;;1.37;1.10;;;22.10;49.00;;;;;;5013032;28;20432;-76
2023/04/08 02:53:39;;;;;;;1.43;1.33;;;22.10;49.10;;;;;;5011896;28;21023;-77
2023/04/08 02:56:10;;;;;;;1.00;1.00;;;22.10;49.00;;;;;;4994848;28;20546;-77
2023/04/08 02:58:39;;;;;;;1.47;1.33;;;22.10;49.10;;;;;;5019290;28;20466;-79
2023/04/08 03:01:09;;;;;;;1.50;1.40;;;22.10;49.10;;;;;;5012199;28;20433;-76
2023/04/08 03:03:38;;;;;;;1.13;1.10;;;22.10;49.10;;;;;;5011901;28;20464;-76
2023/04/08 03:06:06;;;;;;;1.50;1.50;;;22.10;49.10;;;;;;5012531;28;20479;-76
2023/04/08 03:08:34;;;;;;;1.30;1.20;;;22.10;49.10;;;;;;5021801;28;20881;-76
2023/04/08 03:11:03;;;;;;;1.40;1.40;;;22.10;49.10;;;;;;5014259;28;20484;-76
2023/04/08 03:13:31;;;;;;;1.27;1.20;;;22.10;49.10;;;;;;5028232;28;20472;-80
2023/04/08 03:16:00;;;;;;;1.33;1.23;;;22.10;49.10;;;;;;5014263;28;20880;-76
2023/04/08 03:18:28;;;;;;;1.37;1.27;;;22.10;49.10;;;;;;5024812;28;20448;-76
2023/04/08 03:20:57;;;;;;;1.30;1.30;;;22.10;49.10;;;;;;5012148;28;20435;-79
2023/04/08 03:23:25;;;;;;;1.20;1.13;;;22.10;49.10;;;;;;5011886;28;20563;-76
2023/04/08 03:25:53;;;;;;;1.17;1.13;;;22.10;49.10;;;;;;5012113;28;20795;-76
2023/04/08 03:28:21;;;;;;;1.57;1.47;;;22.10;49.10;;;;;;5022470;28;20482;-81
2023/04/08 03:30:49;;;;;;;1.40;1.30;;;22.10;49.10;;;;;;5031509;28;20442;-76
2023/04/08 03:33:19;;;;;;;1.40;1.30;;;22.10;49.10;;;;;;5031629;28;20532;-77
2023/04/08 03:35:47;;;;;;;1.97;1.87;;;22.10;49.10;;;;;;5031537;28;20451;-76
2023/04/08 03:38:15;;;;;;;1.30;1.20;;;22.10;49.10;;;;;;5029166;28;20950;-77
2023/04/08 03:40:44;;;;;;;1.30;1.30;;;22.10;49.20;;;;;;5013307;28;20459;-78
2023/04/08 03:43:12;;;;;;;1.57;1.47;;;22.10;49.20;;;;;;5031000;28;20546;-76
2023/04/08 03:45:40;;;;;;;1.37;1.27;;;22.10;49.20;;;;;;5031270;28;20530;-76
2023/04/08 03:48:08;;;;;;;1.53;1.43;;;22.10;49.20;;;;;;5024928;28;21312;-76
2023/04/08 03:50:38;;;;;;;1.30;1.20;;;22.10;49.10;;;;;;5011364;28;20428;-76
2023/04/08 03:53:10;;;;;;;1.57;1.30;;;22.10;49.10;;;;;;5022092;28;20499;-79
2023/04/08 03:55:38;;;;;;;1.50;1.40;;;22.10;49.10;;;;;;5030924;28;20443;-76
2023/04/08 03:58:06;;;;;;;1.00;1.00;;;22.10;49.10;;;;;;5024755;28;20502;-76
2023/04/08 04:00:36;;;;;;;1.40;1.30;;;22.10;49.10;;;;;;5016432;28;20447;-77
2023/04/08 04:03:04;;;;;;;1.13;1.13;;;22.10;49.10;;;;;;5030344;28;20485;-79
2023/04/08 04:05:32;;;;;;;1.43;1.33;;;22.10;49.10;;;;;;5031365;28;20433;-76
2023/04/08 04:08:02;;;;;;;1.23;1.20;;;22.10;49.10;;;;;;5026305;28;20566;-76
2023/04/08 04:10:30;;;;;;;1.20;1.20;;;22.10;49.20;;;;;;5011307;28;20432;-76
2023/04/08 04:12:58;;;;;;;1.30;1.20;;;22.10;49.20;;;;;;5011692;28;20530;-76
2023/04/08 04:15:26;;;;;;;1.30;1.20;;;22.10;49.20;;;;;;5010503;28;20436;-77
2023/04/08 04:17:54;;;;;;;1.43;1.33;;;22.10;49.20;;;;;;5014819;28;20457;-77
2023/04/08 04:20:24;;;;;;;1.27;1.17;;;22.10;49.20;;;;;;5031127;28;20461;-79
2023/04/08 04:22:53;;;;;;;0.90;0.90;;;22.10;49.20;;;;;;5030817;28;20431;-79
2023/04/08 04:25:22;;;;;;;1.40;1.30;;;22.10;49.20;;;;;;5030993;28;20449;-79
2023/04/08 04:27:51;;;;;;;1.17;1.17;;;22.10;49.20;;;;;;5027526;28;20973;-76
2023/04/08 04:30:19;;;;;;;1.37;1.27;;;22.10;49.20;;;;;;5028052;28;20926;-75
2023/04/08 04:32:47;;;;;;;1.70;1.27;;;22.10;49.20;;;;;;5030876;28;20450;-76
2023/04/08 04:35:15;;;;;;;1.07;1.07;;;22.10;49.20;;;;;;5031013;28;20443;-76
2023/04/08 04:37:43;;;;;;;1.13;1.10;;;22.10;49.20;;;;;;5030931;28;20451;-76
2023/04/08 04:40:12;;;;;;;1.53;1.43;;;22.10;49.20;;;;;;5030484;28;20438;-76
2023/04/08 04:42:41;;;;;;;1.43;1.33;;;22.10;49.20;;;;;;5027048;28;20444;-76
2023/04/08 04:45:11;;;;;;;1.17;1.17;;;22.10;49.20;;;;;;5017210;28;20446;-77
2023/04/08 04:47:39;;;;;;;1.13;1.07;;;22.10;49.30;;;;;;5013351;28;20546;-82
2023/04/08 04:50:08;;;;;;;1.00;0.90;;;22.10;49.30;;;;;;5030899;28;20439;-77
2023/04/08 04:52:37;;;;;;;1.40;1.30;;;22.10;49.30;;;;;;5030589;28;20521;-77
2023/04/08 04:55:05;;;;;;;1.40;1.30;;;22.10;49.30;;;;;;5030813;28;20442;-77
2023/04/08 04:57:34;;;;;;;1.07;1.07;;;22.10;49.30;;;;;;5029875;28;21124;-79
2023/04/08 05:00:03;;;;;;;0.83;0.83;;;22.10;49.30;;;;;;5030093;28;20454;-76
2023/04/08 05:02:32;;;;;;;0.97;0.97;;;22.10;49.20;;;;;;5029467;28;20460;-79
2023/04/08 05:05:01;;;;;;;1.20;1.20;;;22.10;49.20;;;;;;5034399;28;20915;-76
2023/04/08 05:07:29;;;;;;;1.07;1.07;;;22.10;49.20;;;;;;5034235;28;20443;-76
2023/04/08 05:09:57;;;;;;;1.07;1.07;;;22.10;49.20;;;;;;5016952;28;21000;-76
2023/04/08 05:12:27;;;;;;;0.90;0.90;;;22.10;49.30;;;;;;5014516;28;20435;-76
2023/04/08 05:14:55;;;;;;;1.00;1.00;;;22.10;49.30;;;;;;5028991;28;20435;-76
2023/04/08 05:17:24;;;;;;;1.00;1.00;;;22.10;49.30;;;;;;5034383;28;20452;-76
2023/04/08 05:19:53;;;;;;;1.37;1.27;;;22.00;49.30;;;;;;5034322;28;20426;-77
2023/04/08 05:22:21;;;;;;;1.00;1.00;;;22.00;49.30;;;;;;5033724;28;20432;-76
2023/04/08 05:24:49;;;;;;;1.13;1.03;;;22.10;49.30;;;;;;5021553;28;20459;-77
2023/04/08 05:27:17;;;;;;;1.30;1.20;;;22.10;49.30;;;;;;5014034;28;20446;-76
2023/04/08 05:29:45;;;;;;;1.10;1.10;;;22.10;49.30;;;;;;5012783;28;20473;-81
2023/04/08 05:32:15;;;;;;;0.90;0.90;;;22.10;49.30;;;;;;5014368;28;20514;-76
2023/04/08 05:34:45;;;;;;;1.03;1.03;;;22.10;49.30;;;;;;5013852;28;20447;-76
2023/04/08 05:37:13;;;;;;;1.30;1.23;;;22.10;49.30;;;;;;5029688;28;20489;-76
2023/04/08 05:39:41;;;;;;;0.90;0.90;;;22.10;49.30;;;;;;5015817;28;20555;-76
2023/04/08 05:42:11;;;;;;;1.00;1.00;;;22.10;49.30;;;;;;5033536;28;20432;-76
2023/04/08 05:44:42;;;;;;;0.97;0.97;;;22.10;49.30;;;;;;5033031;28;20481;-76
2023/04/08 05:47:10;;;;;;;0.83;0.83;;;22.10;49.30;;;;;;5033290;28;20427;-80
2023/04/08 05:49:39;;;;;;;0.80;0.80;;;22.10;49.30;;;;;;5027936;28;20954;-76
2023/04/08 05:52:08;;;;;;;1.33;0.90;;;22.00;49.40;;;;;;5033209;28;21041;-76
2023/04/08 05:54:36;;;;;;;1.50;1.40;;;22.10;49.40;;;;;;5032029;28;20558;-78
2023/04/08 05:57:05;;;;;;;1.00;1.00;;;22.10;49.40;;;;;;5027150;28;20444;-76
2023/04/08 05:59:35;;;;;;;0.80;0.80;;;22.10;49.40;;;;;;5021658;28;20456;-78
2023/04/08 06:02:03;;;;;;;1.00;1.00;;;22.10;49.40;;;;;;5013814;28;20436;-79
2023/04/08 06:04:32;;;;;;;0.80;0.80;;;22.10;49.30;;;;;;5013542;28;20440;-79
2023/04/08 06:07:01;;;;;;;0.90;0.80;;;22.10;49.30;;;;;;5013445;28;20471;-76
2023/04/08 06:09:34;;;;;;;0.83;0.83;;;22.10;49.30;;;;;;5029872;28;20480;-77
2023/04/08 06:12:02;;;;;;;1.20;1.10;;;22.10;49.30;;;;;;5032560;28;20454;-76
2023/04/08 06:14:30;;;;;;;0.83;0.83;;;22.10;49.30;;;;;;5032219;28;20446;-76
2023/04/08 06:16:58;;;;;;;1.10;0.90;;;22.10;49.30;;;;;;5033005;28;20444;-77
2023/04/08 06:19:27;;;;;;;1.03;1.03;;;22.10;49.30;;;;;;5030005;28;20536;-78
2023/04/08 06:21:57;;;;;;;0.87;0.87;;;22.10;49.30;;;;;;5013357;28;20469;-76
2023/04/08 06:24:26;;;;;;;0.90;0.90;;;22.10;49.30;;;;;;5026840;28;20573;-82
2023/04/08 06:26:56;;;;;;;1.27;1.17;;;22.10;49.40;;;;;;5033091;28;20436;-80
2023/04/08 06:29:24;;;;;;;0.83;0.83;;;22.10;49.40;;;;;;5031921;28;20482;-77
2023/04/08 06:31:52;;;;;;;1.17;1.10;;;22.10;49.40;;;;;;5032736;28;20453;-76
2023/04/08 06:34:21;;;;;;;1.13;0.83;;;22.10;49.30;;;;;;5032904;28;20862;-76
2023/04/08 06:36:51;;;;;;;1.10;1.10;;;22.10;49.30;;;;;;5032310;28;20477;-76
2023/04/08 06:39:20;;;;;;;0.77;0.77;;;22.10;49.30;;;;;;5032207;28;20435;-77
2023/04/08 06:41:48;;;;;;;0.90;0.90;;;22.10;49.30;;;;;;5024056;28;20533;-76
2023/04/08 06:44:29;;;;;;;0.83;0.83;;;22.10;49.30;;;;;;4993811;28;20543;-76
2023/04/08 06:46:57;;;;;;;0.67;0.67;;;22.10;49.30;;;;;;5012732;28;20501;-79
2023/04/08 06:49:25;;;;;;;1.10;1.00;;;22.10;49.30;;;;;;5012752;28;20516;-76
2023/04/08 06:51:54;;;;;;;0.70;0.70;;;22.10;49.30;;;;;;5012784;28;20476;-76
2023/04/08 06:54:22;;;;;;;0.83;0.83;;;22.10;49.30;;;;;;5026349;28;20949;-78
2023/04/08 06:56:50;;;;;;;0.93;0.93;;;22.10;49.30;;;;;;5032748;28;20446;-76
2023/04/08 06:59:18;;;;;;;0.87;0.87;;;22.10;49.40;;;;;;5031351;28;20957;-78
2023/04/08 07:01:48;;;;;;;0.87;0.87;;;22.10;49.40;;;;;;5026874;28;20458;-76
2023/04/08 07:04:16;;;;;;;1.10;1.00;;;22.10;49.40;;;;;;5032368;28;20496;-76
2023/04/08 07:06:44;;;;;;;0.83;0.83;;;22.10;49.30;;;;;;5032178;28;20440;-77
2023/04/08 07:09:12;;;;;;;1.00;1.00;;;22.10;49.30;;;;;;5026498;28;20638;-78
2023/04/08 07:11:40;;;;;;;0.70;0.70;;;22.10;49.30;;;;;;5032473;28;20436;-76
2023/04/08 07:14:09;;;;;;;1.10;1.10;;;22.10;49.30;;;;;;5031007;28;20435;-76
2023/04/08 07:16:37;;;;;;;0.90;0.90;;;22.10;49.30;;;;;;5032189;28;20881;-79
2023/04/08 07:19:07;;;;;;;0.90;0.90;;;22.10;49.20;;;;;;5031512;28;20786;-76
2023/04/08 07:21:35;;;;;;;0.93;0.93;;;22.10;49.20;;;;;;5032134;28;20466;-76
2023/04/08 07:24:03;;;;;;;1.00;1.00;;;22.10;49.30;;;;;;5027649;28;20528;-76
2023/04/08 07:26:31;;;;;;;0.80;0.80;;;22.10;49.30;;;;;;5023535;28;20509;-77
2023/04/08 07:28:59;;;;;;;1.00;0.90;;;22.10;49.30;;;;;;5029487;28;20476;-75
2023/04/08 07:31:27;;;;;;;0.93;0.93;;;22.10;49.30;;;;;;5031408;28;20553;-78
2023/04/08 07:33:56;;;;;;;1.27;1.17;;;22.10;49.30;;;;;;5030676;28;20447;-79
2023/04/08 07:36:25;;;;;;;0.80;0.80;;;22.10;49.30;;;;;;5029767;28;20554;-78
2023/04/08 07:38:54;;;;;;;1.10;1.10;;;22.20;49.30;;;;;;5030682;28;21038;-76
2023/04/08 07:41:22;;;;;;;0.90;0.90;;;22.20;49.30;;;;;;5029430;28;20464;-79
2023/04/08 07:43:50;;;;;;;1.03;0.87;;;22.20;49.20;;;;;;5029159;28;20450;-76
2023/04/08 07:46:19;;;;;;;1.07;1.07;;;22.20;49.20;;;;;;5031059;28;20546;-77
2023/04/08 07:48:47;;;;;;;1.43;1.00;;;22.20;49.20;;;;;;5030624;28;20452;-80
2023/04/08 07:51:16;;;;;;;1.00;1.00;;;22.20;49.10;;;;;;5030562;28;20470;-75
2023/04/08 07:53:49;;;;;;;0.87;0.87;;;22.20;49.10;;;;;;5030524;28;20470;-77
2023/04/08 07:56:18;;;;;;;1.13;1.13;;;22.30;49.10;;;;;;5016567;28;20458;-76
2023/04/08 07:58:46;;;;;;;0.80;0.80;;;22.30;49.10;;;;;;5030014;28;20571;-76
2023/04/08 08:01:18;;;;;;;0.80;0.80;;;22.30;49.10;;;;;;5030937;28;20454;-76
2023/04/08 08:03:47;;;;;;;1.27;1.17;;;22.30;49.10;;;;;;5030148;28;20496;-77
2023/04/08 08:06:16;;;;;;;1.27;1.17;;;22.30;49.10;;;;;;5030988;28;20478;-82
2023/04/08 08:08:44;;;;;;;1.20;1.10;;;22.30;49.10;;;;;;5030891;28;20478;-79
2023/04/08 08:11:14;;;;;;;1.00;1.00;;;22.30;49.10;;;;;;5029318;28;20514;-77
2023/04/08 08:13:42;;;;;;;1.20;1.10;;;22.30;49.10;;;;;;5027639;28;20497;-75
2023/04/08 08:16:11;;;;;;;1.00;1.00;;;22.40;49.00;;;;;;5030769;28;20458;-76
2023/04/08 08:18:40;;;;;;;1.03;1.03;;;22.40;49.00;;;;;;5016022;28;20448;-76
2023/04/08 08:21:09;;;;;;;1.00;1.00;;;22.40;49.00;;;;;;5030108;28;21001;-76
2023/04/08 08:23:37;;;;;;;1.00;1.00;;;22.40;48.90;;;;;;5030774;28;20439;-76
2023/04/08 08:26:08;;;;;;;0.93;0.93;;;22.40;48.90;;;;;;5031049;28;20469;-77
2023/04/08 08:28:39;;;;;;;1.10;1.10;;;22.40;48.90;;;;;;5022958;28;20515;-76
2023/04/08 08:31:07;;;;;;;1.10;1.10;;;22.40;48.90;;;;;;5028415;28;20479;-79
2023/04/08 08:33:36;;;;;;;1.30;1.20;;;22.40;48.90;;;;;;5030767;28;20538;-76
2023/04/08 08:36:05;;;;;;;1.47;1.37;;;22.40;48.90;;;;;;5035410;28;20542;-80
2023/04/08 08:38:34;;;;;;;1.23;1.13;;;22.40;49.00;;;;;;5032957;28;20443;-79
2023/04/08 08:41:03;;;;;;;1.10;1.10;;;22.40;49.00;;;;;;5033969;28;20496;-77
2023/04/08 08:43:33;;;;;;;1.00;1.00;;;22.40;49.00;;;;;;5034185;28;20451;-76
2023/04/08 08:46:03;;;;;;;1.33;1.23;;;22.40;49.00;;;;;;5034616;28;20849;-76
2023/04/08 08:48:32;;;;;;;1.83;1.73;;;22.40;49.00;;;;;;5034480;28;20479;-76
2023/04/08 08:51:01;;;;;;;1.10;1.00;;;22.50;48.90;;;;;;5017236;28;20467;-76
2023/04/08 08:53:30;;;;;;;1.13;1.13;;;22.50;48.90;;;;;;5023820;28;20451;-76
2023/04/08 08:56:02;;;;;;;1.07;1.07;;;22.50;48.90;;;;;;5034725;28;20486;-76
2023/04/08 08:58:34;;;;;;;1.30;1.20;;;22.50;48.90;;;;;;5028215;28;20443;-76
2023/04/08 09:01:03;;;;;;;2.27;1.20;;;22.50;48.90;;;;;;5014477;28;20444;-76
2023/04/08 09:03:31;;;;;;;1.30;1.20;;;22.50;48.90;;;;;;5019253;28;20470;-76
2023/04/08 09:06:02;;;;;;;1.27;1.10;;;22.50;48.90;;;;;;5034367;28;20447;-77
2023/04/08 09:08:32;;;;;;;1.13;1.03;;;22.50;48.90;;;;;;5033782;28;20524;-76
2023/04/08 09:11:15;;;;;;;1.40;1.30;;;22.50;48.90;;;;;;5016004;28;20569;-76
2023/04/08 09:13:43;;;;;;;1.10;1.10;;;22.50;48.90;;;;;;5033302;28;21164;-77
2023/04/08 09:16:16;;;;;;;1.60;1.50;;;22.50;48.90;;;;;;5018699;28;20466;-76
2023/04/08 09:18:46;;;;;;;1.63;1.53;;;22.50;48.90;;;;;;5014885;28;20425;-77
2023/04/08 09:21:15;;;;;;;0.87;0.87;;;22.50;48.90;;;;;;4996885;28;20458;-77
2023/04/08 09:23:45;;;;;;;1.40;1.30;;;22.50;48.90;;;;;;5013835;28;20488;-76
2023/04/08 09:26:14;;;;;;;1.47;1.37;;;22.60;48.80;;;;;;5016650;28;20493;-77
2023/04/08 09:28:43;;;;;;;1.33;1.23;;;22.60;48.80;;;;;;5032764;28;20492;-79
2023/04/08 09:31:23;;;;;;;1.50;1.40;;;22.60;48.80;;;;;;5033767;28;20525;-78
2023/04/08 09:33:54;;;;;;;1.10;1.10;;;22.60;48.80;;;;;;5022191;28;20446;-78
2023/04/08 09:36:22;;;;;;;1.47;1.40;;;22.60;48.80;;;;;;5033880;28;20442;-77
2023/04/08 09:38:50;;;;;;;1.60;1.50;;;22.60;48.70;;;;;;5033676;28;20440;-76
2023/04/08 09:41:22;;;;;;;1.10;1.10;;;22.60;48.70;;;;;;5032762;28;20483;-78
2023/04/08 09:43:53;;;;;;;1.70;1.60;;;22.60;48.80;;;;;;5032105;28;20452;-76
2023/04/08 09:46:29;;;;;;;1.00;1.00;;;22.60;48.80;;;;;;5032925;28;20518;-76
2023/04/08 09:49:02;;;;;;;1.50;1.40;;;22.60;48.80;;;;;;5033747;28;20435;-76
2023/04/08 09:51:33;;;;;;;1.23;1.13;;;22.50;48.80;;;;;;5033621;28;20578;-76
2023/04/08 09:54:06;;;;;;;1.83;1.40;;;22.60;48.80;;;;;;5033476;28;20948;-77
2023/04/08 09:56:41;;;;;;;1.50;1.40;;;22.50;48.80;;;;;;5033807;28;20797;-77
2023/04/08 09:59:13;;;;;;;1.60;1.50;;;22.50;48.80;;;;;;5024567;28;20531;-76
2023/04/08 10:01:46;;;;;;;1.63;1.53;;;22.50;48.80;;;;;;5029098;28;20535;-76
2023/04/08 10:04:17;;;;;;;1.03;1.03;;;22.60;48.80;;;;;;5033203;28;20432;-79
2023/04/08 10:06:47;;;;;;;1.33;1.23;;;22.60;48.80;;;;;;5033195;28;20428;-76
2023/04/08 10:09:15;;;;;;;1.43;1.33;;;22.60;48.80;;;;;;5015460;28;20872;-76
2023/04/08 10:11:44;;;;;;;1.30;1.30;;;22.50;48.80;;;;;;5031703;28;20476;-77
2023/04/08 10:14:12;;;;;;;1.40;1.13;;;22.60;48.80;;;;;;5031364;28;20431;-76
2023/04/08 10:16:40;;;;;;;1.53;1.43;;;22.50;48.80;;;;;;5033009;28;20459;-76
2023/04/08 10:19:40;;;;;;;1.40;1.30;;;22.50;48.80;;;;;;5032875;28;20444;-80
2023/04/08 10:22:46;;;;;;;1.47;1.37;;;22.50;48.80;;;;;;5024541;28;20477;-80
2023/04/08 10:25:33;;;;;;;1.50;1.40;;;22.50;48.90;;;;;;5025863;28;21319;-76
2023/04/08 10:28:22;;;;;;;1.37;1.37;;;22.50;48.90;;;;;;5033375;28;20531;-76
2023/04/08 10:30:51;;;;;;;1.50;1.40;;;22.50;48.90;;;;;;5015253;28;20477;-76
2023/04/08 10:33:22;;;;;;;1.20;1.20;;;22.40;48.90;;;;;;5032834;28;20481;-78
2023/04/08 10:35:54;;;;;;;1.90;1.80;;;22.50;48.90;;;;;;5033301;28;20433;-76
2023/04/08 10:38:22;;;;;;;1.20;1.20;;;22.40;49.00;;;;;;5032264;28;20432;-81
2023/04/08 10:40:51;;;;;;;1.30;1.30;;;22.50;49.00;;;;;;5028441;28;20462;-77
2023/04/08 10:43:19;;;;;;;1.47;1.37;;;22.50;48.90;;;;;;5032667;28;20513;-78
2023/04/08 10:45:50;;;;;;;1.27;1.27;;;22.50;48.90;;;;;;5032411;28;20428;-76
2023/04/08 10:48:19;;;;;;;1.50;1.40;;;22.50;48.90;;;;;;5023562;28;20445;-76
2023/04/08 10:50:57;;;;;;;1.50;1.40;;;22.50;48.90;;;;;;5013274;28;20472;-76
2023/04/08 10:53:27;;;;;;;1.17;1.13;;;22.50;48.80;;;;;;5019237;28;20479;-76
2023/04/08 10:56:03;;;;;;;1.80;1.70;;;22.50;48.80;;;;;;5032545;28;20531;-77
2023/04/08 10:58:31;;;;;;;1.53;1.43;;;22.50;48.80;;;;;;5030469;28;20522;-82
2023/04/08 11:01:04;;;;;;;1.80;1.70;;;22.50;48.80;;;;;;5030514;28;20916;-79
2023/04/08 11:03:33;;;;;;;1.40;1.27;;;22.50;48.80;;;;;;5012558;28;20540;-76
2023/04/08 11:06:03;;;;;;;1.40;1.30;;;22.50;48.80;;;;;;5012989;28;20468;-76
2023/04/08 11:08:33;;;;;;;2.10;2.00;;;22.50;48.80;;;;;;5012104;28;20465;-76
2023/04/08 11:11:01;;;;;;;2.77;1.60;;;22.50;48.80;;;;;;5022961;28;20507;-76
2023/04/08 11:13:30;;;;;;;1.60;1.50;;;22.50;48.80;;;;;;5031182;28;20539;-77
2023/04/08 11:15:59;;;;;;;1.37;1.27;;;22.50;48.80;;;;;;5031948;28;20440;-76
2023/04/08 11:18:28;;;;;;;1.80;1.70;;;22.50;48.90;;;;;;5014081;28;20456;-78
2023/04/08 11:20:57;;;;;;;1.50;1.40;;;22.50;48.90;;;;;;5032319;28;20433;-76
2023/04/08 11:23:28;;;;;;;1.47;1.37;;;22.50;48.80;;;;;;5031444;28;20435;-76
2023/04/08 11:25:57;;;;;;;1.80;1.60;;;22.50;48.80;;;;;;5031746;28;20428;-76
2023/04/08 11:28:26;;;;;;;1.60;1.50;;;22.50;48.80;;;;;;5031235;28;20444;-80
2023/04/08 11:30:55;;;;;;;1.90;1.80;;;22.60;48.80;;;;;;5031051;28;20483;-81
2023/04/08 11:33:26;;;;;;;1.20;1.20;;;22.50;48.80;;;;;;5019229;28;20933;-76
2023/04/08 11:35:54;;;;;;;1.80;1.70;;;22.50;48.80;;;;;;5012281;28;20454;-79
2023/04/08 11:38:23;;;;;;;2.00;1.90;;;22.60;48.80;;;;;;5011355;28;20520;-79
2023/04/08 11:40:57;;;;;;;1.77;1.67;;;22.60;48.70;;;;;;5021131;28;20505;-80
2023/04/08 11:43:26;;;;;;;2.20;2.10;;;22.50;48.70;;;;;;5030309;28;20450;-79
2023/04/08 11:45:54;;;;;;;1.80;1.70;;;22.50;48.70;;;;;;5031770;28;20435;-77
2023/04/08 11:48:22;;;;;;;1.80;1.70;;;22.50;48.80;;;;;;5031137;28;20437;-78
2023/04/08 11:51:03;;;;;;;1.90;1.80;;;22.50;48.80;;;;;;5031833;28;20482;-80
2023/04/08 11:53:32;;;;;;;1.73;1.63;;;22.50;48.80;;;;;;5003341;28;20565;-76
2023/04/08 11:56:19;;;;;;;1.67;1.57;;;22.50;48.80;;;;;;5011615;28;20471;-76
2023/04/08 11:58:50;;;;;;;1.70;1.60;;;22.50;48.80;;;;;;5009728;28;20799;-77
2023/04/08 12:01:19;;;;;;;2.70;2.03;;;22.50;48.80;;;;;;5011694;28;20433;-77
2023/04/08 12:03:59;;;;;;;1.90;1.80;;;22.60;48.80;;;;;;5011179;28;20432;-79
2023/04/08 12:06:30;;;;;;;1.80;1.70;;;22.60;48.80;;;;;;5011871;28;20904;-77
2023/04/08 12:08:58;;;;;;;1.93;1.83;;;22.60;48.70;;;;;;5010552;28;20444;-76
2023/04/08 12:11:28;;;;;;;1.87;1.77;;;22.60;48.70;;;;;;5005247;28;20844;-80
2023/04/08 12:13:56;;;;;;;1.80;1.70;;;22.60;48.70;;;;;;4997251;28;20547;-82
2023/04/08 12:16:24;;;;;;;1.60;1.50;;;22.60;48.60;;;;;;5001462;28;20979;-83
2023/04/08 12:18:52;;;;;;;1.80;1.70;;;22.60;48.60;;;;;;5005484;28;20870;-78
2023/04/08 12:21:21;;;;;;;1.87;1.77;;;22.60;48.70;;;;;;5009162;28;20465;-77
2023/04/08 12:23:49;;;;;;;1.47;1.40;;;22.60;48.70;;;;;;5006554;28;22092;-78
2023/04/08 12:26:18;;;;;;;1.97;1.87;;;22.60;48.80;;;;;;5007768;28;20459;-77
2023/04/08 12:28:48;;;;;;;1.70;1.60;;;22.60;48.90;;;;;;5003291;28;21008;-77
2023/04/08 12:31:16;;;;;;;1.70;1.60;;;22.60;48.90;;;;;;5005870;28;20479;-77
2023/04/08 12:33:44;;;;;;;2.10;1.70;;;22.50;49.00;;;;;;5009535;28;20464;-77
2023/04/08 12:36:13;;;;;;;4.53;1.70;;;22.50;49.00;;;;;;5007034;28;20468;-77
2023/04/08 12:38:41;;;;;;;1.80;1.70;;;22.50;49.00;;;;;;5007160;28;20456;-79
2023/04/08 12:41:09;;;;;;;1.90;1.80;;;22.50;49.10;;;;;;5006061;28;21201;-77
2023/04/08 12:43:38;;;;;;;1.97;1.83;;;22.60;49.20;;;;;;5005323;28;20519;-77
2023/04/08 12:46:07;;;;;;;1.97;1.77;;;22.60;49.20;;;;;;5008336;28;20518;-75
2023/04/08 12:48:35;;;;;;;2.60;1.90;;;22.60;49.10;;;;;;5003172;28;20960;-75
2023/04/08 12:51:04;;;;;;;2.23;2.00;;;22.60;49.10;;;;;;5004793;28;20544;-75
2023/04/08 12:53:32;;;;;;;3.80;2.07;;;22.60;49.00;;;;;;5005258;28;20476;-77
2023/04/08 12:56:01;;;;;;;2.60;2.20;;;22.60;49.10;;;;;;5006008;28;20459;-82
2023/04/08 12:58:30;;;;;;;3.70;1.90;;;22.60;49.00;;;;;;5004154;28;20456;-77
2023/04/08 13:00:58;;;;;;;3.17;2.87;;;22.60;49.10;;;;;;5004177;28;20456;-75